createdAt,value
2018-05-13T00:00:54.252Z,16.11
2018-05-13T00:03:21.775Z,16.00
2018-05-13T00:05:49.238Z,16.01
2018-05-13T00:08:16.690Z,16.01
2018-05-13T00:10:44.202Z,16.04
2018-05-13T00:13:11.807Z,16.22
2018-05-13T00:15:39.257Z,16.12
2018-05-13T00:18:06.762Z,16.15
2018-05-13T00:20:40.553Z,16.18
2018-05-13T00:23:08.871Z,16.31
2018-05-13T00:25:36.471Z,16.37
2018-05-13T00:28:03.910Z,16.41
2018-05-13T00:30:31.361Z,16.04
2018-05-13T00:32:58.850Z,15.90
2018-05-13T00:35:27.421Z,15.84
2018-05-13T00:37:55.213Z,16.03
2018-05-13T00:40:22.676Z,16.12
2018-05-13T00:42:50.126Z,15.98
2018-05-13T00:45:17.593Z,15.97
2018-05-13T00:47:45.033Z,15.99
2018-05-13T00:50:12.517Z,16.16
2018-05-13T00:52:39.974Z,16.21
2018-05-13T00:55:07.447Z,16.22
2018-05-13T00:57:34.872Z,16.24
2018-05-13T01:00:02.286Z,16.24
2018-05-13T01:02:29.695Z,16.19
2018-05-13T01:04:57.144Z,16.16
2018-05-13T01:07:43.320Z,16.20
2018-05-13T01:10:10.746Z,16.28
2018-05-13T01:12:38.199Z,16.28
2018-05-13T01:15:05.992Z,16.17
2018-05-13T01:17:34.064Z,16.16
2018-05-13T01:20:08.476Z,16.16
2018-05-13T01:22:35.903Z,15.99
2018-05-13T01:25:03.336Z,15.91
2018-05-13T01:27:30.765Z,15.86
2018-05-13T01:29:58.224Z,15.83
2018-05-13T01:32:25.675Z,15.78
2018-05-13T01:34:53.140Z,15.88
2018-05-13T01:37:20.590Z,15.79
2018-05-13T01:39:48.072Z,15.73
2018-05-13T01:42:15.473Z,15.63
2018-05-13T01:44:42.936Z,15.68
2018-05-13T01:47:11.692Z,15.82
2018-05-13T01:49:39.147Z,15.90
2018-05-13T01:52:06.580Z,15.98
2018-05-13T01:54:34.059Z,15.95
2018-05-13T01:57:01.468Z,15.83
2018-05-13T01:59:28.899Z,15.78
2018-05-13T02:01:56.317Z,15.79
2018-05-13T02:04:24.178Z,15.80
2018-05-13T02:06:51.640Z,15.71
2018-05-13T02:09:19.741Z,15.70
2018-05-13T02:11:47.146Z,15.63
2018-05-13T02:14:14.596Z,15.54
2018-05-13T02:16:42.065Z,15.44
2018-05-13T02:19:10.159Z,15.36
2018-05-13T02:21:40.759Z,15.38
2018-05-13T02:24:08.151Z,15.32
2018-05-13T02:26:35.547Z,15.31
2018-05-13T02:29:03.131Z,15.18
2018-05-13T02:31:31.492Z,15.16
2018-05-13T02:33:58.883Z,15.30
2018-05-13T02:36:26.332Z,15.39
2018-05-13T02:38:53.816Z,15.37
2018-05-13T02:41:21.282Z,15.36
2018-05-13T02:43:48.897Z,15.42
2018-05-13T02:46:16.356Z,15.33
2018-05-13T02:48:43.809Z,15.22
2018-05-13T02:51:11.240Z,15.17
2018-05-13T02:53:38.682Z,15.09
2018-05-13T02:56:08.769Z,14.96
2018-05-13T02:58:36.196Z,14.68
2018-05-13T03:01:03.833Z,14.40
2018-05-13T03:03:31.291Z,14.13
2018-05-13T03:05:58.732Z,14.03
2018-05-13T03:08:31.249Z,14.14
2018-05-13T03:10:58.739Z,14.14
2018-05-13T03:13:26.176Z,14.09
2018-05-13T03:15:53.617Z,14.08
2018-05-13T03:18:21.063Z,14.00
2018-05-13T03:20:48.520Z,13.98
2018-05-13T03:23:16.035Z,13.87
2018-05-13T03:25:43.443Z,13.77
2018-05-13T03:28:10.846Z,13.80
2018-05-13T03:30:38.292Z,13.98
2018-05-13T03:33:05.717Z,13.91
2018-05-13T03:35:33.235Z,13.99
2018-05-13T03:38:00.944Z,14.03
2018-05-13T03:40:28.365Z,14.07
2018-05-13T03:42:56.409Z,14.19
2018-05-13T03:45:23.876Z,14.23
2018-05-13T03:47:51.324Z,14.26
2018-05-13T03:50:18.789Z,14.14
2018-05-13T03:52:46.211Z,14.15
2018-05-13T03:55:14.099Z,13.97
2018-05-13T03:57:41.527Z,13.89
2018-05-13T04:00:09.088Z,13.95
2018-05-13T04:02:36.587Z,14.06
2018-05-13T04:05:04.042Z,14.20
2018-05-13T04:07:31.465Z,14.22
2018-05-13T04:10:10.629Z,14.20
2018-05-13T04:12:50.009Z,14.17
2018-05-13T04:15:21.048Z,14.21
2018-05-13T04:17:48.470Z,14.25
2018-05-13T04:20:15.867Z,14.28
2018-05-13T04:22:43.308Z,14.28
2018-05-13T04:25:10.740Z,14.25
2018-05-13T04:27:38.161Z,14.15
2018-05-13T04:30:05.604Z,14.15
2018-05-13T04:32:33.381Z,14.18
2018-05-13T04:35:00.796Z,14.24
2018-05-13T04:37:28.234Z,14.22
2018-05-13T04:39:55.650Z,14.03
2018-05-13T04:42:23.039Z,14.04
2018-05-13T04:44:50.472Z,14.04
2018-05-13T04:47:17.900Z,14.05
2018-05-13T04:49:45.327Z,13.96
2018-05-13T04:52:12.808Z,13.98
2018-05-13T04:54:40.284Z,13.97
2018-05-13T04:57:07.764Z,13.89
2018-05-13T04:59:35.224Z,13.88
2018-05-13T05:02:02.674Z,13.87
2018-05-13T05:04:30.236Z,13.90
2018-05-13T05:06:57.673Z,13.99
2018-05-13T05:09:25.878Z,14.05
2018-05-13T05:11:54.529Z,14.08
2018-05-13T05:14:21.971Z,14.14
2018-05-13T05:16:49.395Z,14.08
2018-05-13T05:19:16.797Z,13.99
2018-05-13T05:21:44.233Z,13.98
2018-05-13T05:24:11.669Z,14.11
2018-05-13T05:26:39.393Z,14.16
2018-05-13T05:29:06.837Z,14.18
2018-05-13T05:31:34.271Z,14.25
2018-05-13T05:34:01.731Z,14.28
2018-05-13T05:36:29.185Z,14.30
2018-05-13T05:38:56.632Z,14.29
2018-05-13T05:41:24.024Z,14.22
2018-05-13T05:43:51.452Z,14.15
2018-05-13T05:46:18.885Z,13.92
2018-05-13T05:48:47.466Z,13.85
2018-05-13T05:51:14.960Z,13.73
2018-05-13T05:53:42.358Z,13.81
2018-05-13T05:56:09.832Z,13.61
2018-05-13T05:58:37.248Z,13.45
2018-05-13T06:01:04.703Z,13.44
2018-05-13T06:03:32.142Z,13.40
2018-05-13T06:05:59.578Z,13.44
2018-05-13T06:08:27.010Z,13.38
2018-05-13T06:10:54.432Z,13.45
2018-05-13T06:13:21.875Z,13.50
2018-05-13T06:15:49.278Z,13.52
2018-05-13T06:18:16.749Z,13.35
2018-05-13T06:20:44.144Z,13.23
2018-05-13T06:23:12.100Z,13.10
2018-05-13T06:25:39.498Z,12.94
2018-05-13T06:28:07.050Z,13.01
2018-05-13T06:30:34.533Z,13.13
2018-05-13T06:33:01.932Z,13.28
2018-05-13T06:35:29.374Z,13.37
2018-05-13T06:37:57.382Z,13.40
2018-05-13T06:40:25.148Z,13.46
2018-05-13T06:42:52.546Z,13.47
2018-05-13T06:45:20.091Z,13.24
2018-05-13T06:47:47.475Z,13.32
2018-05-13T06:50:18.640Z,13.39
2018-05-13T06:52:46.099Z,13.14
2018-05-13T06:55:14.963Z,13.17
2018-05-13T06:57:42.470Z,13.36
2018-05-13T07:00:09.908Z,13.43
2018-05-13T07:02:37.332Z,13.44
2018-05-13T07:05:04.758Z,13.28
2018-05-13T07:07:32.162Z,13.17
2018-05-13T07:09:59.585Z,13.15
2018-05-13T07:12:27.005Z,13.06
2018-05-13T07:14:55.204Z,12.67
2018-05-13T07:17:22.624Z,12.53
2018-05-13T07:19:50.027Z,12.45
2018-05-13T07:22:17.455Z,12.55
2018-05-13T07:24:44.887Z,12.63
2018-05-13T07:27:13.288Z,12.62
2018-05-13T07:29:40.735Z,12.75
2018-05-13T07:32:08.220Z,12.67
2018-05-13T07:34:35.691Z,12.64
2018-05-13T07:37:03.131Z,12.75
2018-05-13T07:39:30.590Z,12.83
2018-05-13T07:41:58.045Z,12.96
2018-05-13T07:44:25.482Z,12.86
2018-05-13T07:46:53.049Z,12.96
2018-05-13T07:49:21.913Z,12.96
2018-05-13T07:51:49.423Z,12.71
2018-05-13T07:54:16.826Z,12.83
2018-05-13T07:56:44.321Z,12.72
2018-05-13T07:59:13.413Z,12.63
2018-05-13T08:01:40.891Z,12.63
2018-05-13T08:04:08.360Z,12.60
2018-05-13T08:06:35.780Z,12.62
2018-05-13T08:09:03.212Z,12.67
2018-05-13T08:11:31.024Z,12.71
2018-05-13T08:13:59.041Z,12.70
2018-05-13T08:16:26.592Z,12.73
2018-05-13T08:18:59.538Z,12.78
2018-05-13T08:21:26.964Z,12.53
2018-05-13T08:23:54.403Z,12.52
2018-05-13T08:26:21.872Z,12.43
2018-05-13T08:28:49.267Z,12.35
2018-05-13T08:31:18.288Z,12.32
2018-05-13T08:33:45.684Z,12.31
2018-05-13T08:36:13.108Z,12.06
2018-05-13T08:38:42.559Z,12.03
2018-05-13T08:41:10.819Z,12.59
2018-05-13T08:43:38.290Z,12.99
2018-05-13T08:46:05.688Z,12.71
2018-05-13T08:48:33.249Z,12.38
2018-05-13T08:51:00.595Z,12.45
2018-05-13T08:53:28.012Z,12.59
2018-05-13T08:55:55.406Z,12.57
2018-05-13T08:58:22.859Z,12.69
2018-05-13T09:00:50.281Z,12.47
2018-05-13T09:03:17.716Z,12.45
2018-05-13T09:05:45.170Z,12.52
2018-05-13T09:08:12.670Z,12.55
2018-05-13T09:10:40.132Z,12.47
2018-05-13T09:13:07.589Z,12.47
2018-05-13T09:15:35.027Z,12.49
2018-05-13T09:18:02.554Z,12.73
2018-05-13T09:20:30.062Z,12.98
2018-05-13T09:22:57.448Z,13.25
2018-05-13T09:25:24.926Z,13.35
2018-05-13T09:27:53.884Z,13.32
2018-05-13T09:30:21.303Z,13.50
2018-05-13T09:32:51.512Z,13.68
2018-05-13T09:35:18.944Z,13.91
2018-05-13T09:37:46.448Z,14.03
2018-05-13T09:40:13.854Z,13.94
2018-05-13T09:42:41.305Z,13.60
2018-05-13T09:45:08.735Z,13.37
2018-05-13T09:47:36.139Z,13.36
2018-05-13T09:50:04.168Z,13.37
2018-05-13T09:52:31.638Z,13.43
2018-05-13T09:54:59.837Z,13.42
2018-05-13T09:57:27.265Z,13.52
2018-05-13T09:59:54.686Z,13.75
2018-05-13T10:02:22.179Z,13.81
2018-05-13T10:04:49.746Z,13.79
2018-05-13T10:07:17.177Z,13.83
2018-05-13T10:09:44.575Z,13.66
2018-05-13T10:12:12.058Z,13.81
2018-05-13T10:14:39.493Z,13.68
2018-05-13T10:17:06.968Z,13.69
2018-05-13T10:19:34.406Z,13.97
2018-05-13T10:22:01.831Z,14.16
2018-05-13T10:24:29.298Z,14.34
2018-05-13T10:26:58.023Z,14.65
2018-05-13T10:29:25.479Z,14.90
2018-05-13T10:31:57.897Z,15.04
2018-05-13T10:34:25.299Z,14.93
2018-05-13T10:36:52.777Z,14.78
2018-05-13T10:39:20.244Z,14.89
2018-05-13T10:41:49.527Z,14.92
2018-05-13T10:44:16.971Z,14.92
2018-05-13T10:46:44.405Z,14.82
2018-05-13T10:49:12.211Z,14.87
2018-05-13T10:51:39.677Z,14.88
2018-05-13T10:54:07.325Z,14.80
2018-05-13T10:56:34.816Z,14.71
2018-05-13T10:59:02.233Z,14.75
2018-05-13T11:01:29.626Z,14.87
2018-05-13T11:03:57.035Z,14.90
2018-05-13T11:06:24.536Z,15.05
2018-05-13T11:08:52.007Z,15.13
2018-05-13T11:11:19.396Z,15.22
2018-05-13T11:13:47.627Z,15.29
2018-05-13T11:16:15.966Z,15.11
2018-05-13T11:18:43.901Z,14.97
2018-05-13T11:21:11.326Z,15.00
2018-05-13T11:23:38.751Z,15.13
2018-05-13T11:26:06.180Z,15.10
2018-05-13T11:28:33.640Z,15.19
2018-05-13T11:31:02.729Z,15.12
2018-05-13T11:33:30.163Z,14.98
2018-05-13T11:35:57.633Z,14.99
2018-05-13T11:38:25.174Z,14.88
2018-05-13T11:40:52.631Z,14.88
2018-05-13T11:43:20.088Z,14.90
2018-05-13T11:45:47.567Z,14.79
2018-05-13T11:48:15.021Z,14.83
2018-05-13T11:50:42.475Z,14.95
2018-05-13T11:53:12.493Z,15.08
2018-05-13T11:55:40.043Z,15.18
2018-05-13T11:58:07.521Z,15.28
2018-05-13T12:00:34.973Z,15.28
2018-05-13T12:03:02.446Z,15.24
2018-05-13T12:05:29.880Z,15.06
2018-05-13T12:07:57.324Z,14.97
2018-05-13T12:10:24.800Z,14.88
2018-05-13T12:12:52.231Z,14.99
2018-05-13T12:15:19.688Z,15.05
2018-05-13T12:17:47.114Z,15.06
2018-05-13T12:20:14.569Z,15.15
2018-05-13T12:22:42.065Z,14.94
2018-05-13T12:25:09.494Z,14.69
2018-05-13T12:27:36.924Z,14.52
2018-05-13T12:30:04.401Z,14.45
2018-05-13T12:32:31.794Z,14.43
2018-05-13T12:34:59.257Z,14.43
2018-05-13T12:37:27.545Z,14.41
2018-05-13T12:39:54.986Z,14.39
2018-05-13T12:42:22.519Z,14.45
2018-05-13T12:44:49.980Z,14.44
2018-05-13T12:47:18.557Z,14.36
2018-05-13T12:49:45.971Z,14.45
2018-05-13T12:52:13.375Z,14.51
2018-05-13T12:54:40.809Z,14.51
2018-05-13T12:57:08.243Z,14.41
2018-05-13T12:59:35.659Z,14.33
2018-05-13T13:02:03.103Z,14.26
2018-05-13T13:04:32.202Z,14.21
2018-05-13T13:06:59.604Z,14.25
2018-05-13T13:09:27.123Z,14.32
2018-05-13T13:11:54.618Z,14.41
2018-05-13T13:14:22.111Z,14.46
2018-05-13T13:16:49.639Z,14.42
2018-05-13T13:19:17.031Z,14.37
2018-05-13T13:21:44.457Z,14.28
2018-05-13T13:24:11.872Z,14.19
2018-05-13T13:26:39.275Z,14.20
2018-05-13T13:29:06.722Z,14.27
2018-05-13T13:31:34.122Z,14.22
2018-05-13T13:34:01.560Z,14.14
2018-05-13T13:36:29.079Z,14.15
2018-05-13T13:39:01.149Z,14.24
2018-05-13T13:41:28.583Z,14.34
2018-05-13T13:43:56.039Z,14.36
2018-05-13T13:46:23.474Z,14.35
2018-05-13T13:48:50.937Z,14.36
2018-05-13T13:51:18.811Z,14.36
2018-05-13T13:53:49.943Z,14.29
2018-05-13T13:56:17.391Z,14.24
2018-05-13T13:58:44.982Z,14.24
2018-05-13T14:01:12.424Z,14.16
2018-05-13T14:03:41.116Z,14.30
2018-05-13T14:06:08.617Z,14.42
2018-05-13T14:08:36.832Z,14.39
2018-05-13T14:11:04.315Z,14.36
2018-05-13T14:13:31.806Z,14.22
2018-05-13T14:15:59.247Z,14.17
2018-05-13T14:18:26.710Z,14.06
2018-05-13T14:20:55.277Z,14.08
2018-05-13T14:23:22.675Z,14.07
2018-05-13T14:25:50.172Z,14.00
2018-05-13T14:28:17.603Z,13.93
2018-05-13T14:30:45.213Z,13.83
2018-05-13T14:33:12.663Z,13.57
2018-05-13T14:35:41.560Z,13.58
2018-05-13T14:38:09.267Z,13.38
2018-05-13T14:40:36.635Z,13.31
2018-05-13T14:43:05.143Z,13.48
2018-05-13T14:45:32.586Z,13.64
2018-05-13T14:48:00.009Z,13.72
2018-05-13T14:50:27.450Z,13.82
2018-05-13T14:52:54.903Z,13.87
2018-05-13T14:55:22.519Z,13.53
2018-05-13T14:57:50.800Z,13.40
2018-05-13T15:00:18.233Z,13.42
2018-05-13T15:02:45.680Z,13.48
2018-05-13T15:05:13.092Z,13.64
2018-05-13T15:07:40.497Z,13.75
2018-05-13T15:10:09.828Z,13.81
2018-05-13T15:12:37.257Z,13.68
2018-05-13T15:15:04.701Z,13.59
2018-05-13T15:17:32.124Z,13.55
2018-05-13T15:19:59.603Z,13.53
2018-05-13T15:22:32.649Z,13.55
2018-05-13T15:25:00.089Z,13.60
2018-05-13T15:27:27.556Z,13.67
2018-05-13T15:29:54.989Z,13.71
2018-05-13T15:32:22.454Z,13.67
2018-05-13T15:34:49.883Z,13.71
2018-05-13T15:37:17.354Z,13.73
2018-05-13T15:39:44.763Z,13.85
2018-05-13T15:42:12.238Z,13.89
2018-05-13T15:44:39.628Z,13.81
2018-05-13T15:47:07.103Z,13.82
2018-05-13T15:49:34.537Z,13.73
2018-05-13T15:52:01.964Z,13.35
2018-05-13T15:54:30.014Z,13.13
2018-05-13T15:56:57.422Z,13.13
2018-05-13T15:59:24.939Z,12.90
2018-05-13T16:01:52.395Z,12.70
2018-05-13T16:04:19.798Z,12.66
2018-05-13T16:06:47.238Z,12.63
2018-05-13T16:09:15.416Z,12.52
2018-05-13T16:11:42.839Z,12.48
2018-05-13T16:14:10.425Z,12.52
2018-05-13T16:16:38.634Z,12.52
2018-05-13T16:19:06.387Z,12.41
2018-05-13T16:21:33.922Z,12.39
2018-05-13T16:24:01.450Z,12.39
2018-05-13T16:26:28.928Z,12.30
2018-05-13T16:28:56.365Z,12.22
2018-05-13T16:31:23.832Z,12.29
2018-05-13T16:33:53.034Z,12.47
2018-05-13T16:36:20.503Z,12.58
2018-05-13T16:38:47.912Z,12.57
2018-05-13T16:41:17.203Z,12.68
2018-05-13T16:43:44.721Z,12.60
2018-05-13T16:46:22.516Z,12.42
2018-05-13T16:48:49.940Z,12.31
2018-05-13T16:51:17.376Z,12.12
2018-05-13T16:53:44.828Z,11.93
2018-05-13T16:56:13.090Z,11.91
2018-05-13T16:58:41.221Z,11.93
2018-05-13T17:01:19.658Z,11.84
2018-05-13T17:03:47.239Z,11.82
2018-05-13T17:06:14.666Z,11.86
2018-05-13T17:08:42.107Z,11.91
2018-05-13T17:11:09.515Z,12.00
2018-05-13T17:13:37.001Z,11.93
2018-05-13T17:16:04.472Z,11.97
2018-05-13T17:18:31.999Z,12.00
2018-05-13T17:20:59.448Z,11.99
2018-05-13T17:23:26.949Z,11.90
2018-05-13T17:25:54.488Z,12.00
2018-05-13T17:28:21.933Z,11.82
2018-05-13T17:30:49.401Z,11.70
2018-05-13T17:33:16.811Z,11.73
2018-05-13T17:35:45.084Z,11.66
2018-05-13T17:38:13.396Z,11.66
2018-05-13T17:40:40.932Z,11.63
2018-05-13T17:43:08.363Z,11.69
2018-05-13T17:45:36.840Z,11.83
2018-05-13T17:48:04.278Z,11.81
2018-05-13T17:50:33.572Z,11.56
2018-05-13T17:53:01.008Z,11.46
2018-05-13T17:55:30.125Z,11.33
2018-05-13T17:57:57.577Z,11.25
2018-05-13T18:00:25.951Z,11.25
2018-05-13T18:02:53.378Z,11.15
2018-05-13T18:05:20.813Z,11.17
2018-05-13T18:07:50.280Z,11.20
2018-05-13T18:10:18.350Z,11.20
2018-05-13T18:12:45.810Z,11.06
2018-05-13T18:15:13.348Z,11.08
2018-05-13T18:17:40.935Z,11.10
2018-05-13T18:20:08.410Z,11.14
2018-05-13T18:22:35.898Z,11.19
2018-05-13T18:25:04.040Z,11.19
2018-05-13T18:27:31.581Z,11.14
2018-05-13T18:29:59.085Z,11.15
2018-05-13T18:32:26.501Z,11.13
2018-05-13T18:34:55.033Z,11.05
2018-05-13T18:37:22.436Z,10.91
2018-05-13T18:39:49.862Z,11.04
2018-05-13T18:42:17.300Z,11.20
2018-05-13T18:44:45.894Z,11.14
2018-05-13T18:47:13.375Z,11.10
2018-05-13T18:49:41.026Z,11.10
2018-05-13T18:52:08.499Z,11.09
2018-05-13T18:54:35.982Z,11.05
2018-05-13T18:57:04.631Z,11.03
2018-05-13T18:59:32.096Z,11.05
2018-05-13T19:01:59.538Z,11.08
2018-05-13T19:04:27.016Z,11.08
2018-05-13T19:06:54.481Z,11.19
2018-05-13T19:09:21.952Z,11.17
2018-05-13T19:11:49.405Z,11.08
2018-05-13T19:14:16.840Z,10.99
2018-05-13T19:16:44.293Z,10.98
2018-05-13T19:19:11.747Z,10.94
2018-05-13T19:21:39.243Z,10.94
2018-05-13T19:24:06.733Z,10.96
2018-05-13T19:26:34.221Z,10.87
2018-05-13T19:29:01.635Z,10.87
2018-05-13T19:31:29.044Z,10.79
2018-05-13T19:33:56.475Z,10.63
2018-05-13T19:36:23.945Z,10.57
2018-05-13T19:38:51.407Z,10.68
2018-05-13T19:41:19.897Z,10.74
2018-05-13T19:43:47.789Z,10.72
2018-05-13T19:46:15.203Z,10.55
2018-05-13T19:48:42.631Z,10.53
2018-05-13T19:51:10.069Z,10.54
2018-05-13T19:53:37.535Z,10.53
2018-05-13T19:56:04.964Z,10.64
2018-05-13T19:58:32.362Z,10.74
2018-05-13T20:01:01.230Z,10.75
2018-05-13T20:03:28.858Z,10.75
2018-05-13T20:05:56.070Z,10.68
2018-05-13T20:08:23.483Z,10.74
2018-05-13T20:10:50.918Z,10.69
2018-05-13T20:13:18.305Z,10.82
2018-05-13T20:15:45.932Z,10.87
2018-05-13T20:18:13.381Z,10.93
2018-05-13T20:20:40.800Z,11.10
2018-05-13T20:23:20.127Z,11.07
2018-05-13T20:25:51.231Z,11.02
2018-05-13T20:28:18.663Z,10.98
2018-05-13T20:30:47.276Z,10.98
2018-05-13T20:33:14.825Z,11.08
2018-05-13T20:35:42.272Z,10.99
2018-05-13T20:38:09.712Z,11.00
2018-05-13T20:40:37.209Z,11.08
2018-05-13T20:43:04.701Z,11.12
2018-05-13T20:45:32.157Z,11.13
2018-05-13T20:47:59.674Z,11.20
2018-05-13T20:50:27.125Z,11.26
2018-05-13T20:52:55.251Z,11.28
2018-05-13T20:55:22.664Z,11.32
2018-05-13T20:57:50.702Z,11.39
2018-05-13T21:00:18.244Z,11.44
2018-05-13T21:02:45.765Z,11.43
2018-05-13T21:05:13.303Z,11.40
2018-05-13T21:07:40.685Z,11.35
2018-05-13T21:10:09.007Z,11.34
2018-05-13T21:12:36.463Z,11.35
2018-05-13T21:15:03.858Z,11.23
2018-05-13T21:17:31.279Z,11.18
2018-05-13T21:19:58.812Z,10.96
2018-05-13T21:22:26.212Z,10.99
2018-05-13T21:24:53.615Z,11.02
2018-05-13T21:27:21.037Z,11.07
2018-05-13T21:29:48.469Z,11.13
2018-05-13T21:32:15.884Z,11.11
2018-05-13T21:34:44.075Z,11.13
2018-05-13T21:37:11.670Z,11.04
2018-05-13T21:39:39.102Z,11.06
2018-05-13T21:42:06.505Z,11.07
2018-05-13T21:44:34.120Z,11.03
2018-05-13T21:47:01.805Z,10.90
2018-05-13T21:49:29.168Z,10.81
2018-05-13T21:51:56.611Z,10.92
2018-05-13T21:54:24.916Z,11.00
2018-05-13T21:56:52.700Z,11.07
2018-05-13T21:59:20.099Z,11.06
2018-05-13T22:01:47.585Z,11.03
2018-05-13T22:04:15.150Z,11.06
2018-05-13T22:06:43.590Z,11.11
2018-05-13T22:09:13.535Z,11.12
2018-05-13T22:11:40.935Z,11.03
2018-05-13T22:14:08.407Z,10.82
2018-05-13T22:16:35.833Z,10.73
2018-05-13T22:19:03.401Z,10.58
2018-05-13T22:21:30.975Z,10.47
2018-05-13T22:23:58.453Z,10.46
2018-05-13T22:26:25.930Z,10.44
2018-05-13T22:28:53.367Z,10.39
2018-05-13T22:31:21.216Z,10.44
2018-05-13T22:33:48.769Z,10.51
2018-05-13T22:36:16.214Z,10.62
2018-05-13T22:38:43.658Z,10.60
2018-05-13T22:41:11.103Z,10.52
2018-05-13T22:43:38.546Z,10.58
2018-05-13T22:46:06.841Z,10.52
2018-05-13T22:48:34.289Z,10.60
2018-05-13T22:51:02.784Z,10.69
2018-05-13T22:53:30.247Z,10.48
2018-05-13T22:55:57.690Z,10.51
2018-05-13T22:58:25.238Z,10.57
2018-05-13T23:00:52.639Z,10.55
2018-05-13T23:03:20.680Z,10.52
2018-05-13T23:05:49.264Z,10.47
2018-05-13T23:08:17.564Z,10.43
2018-05-13T23:10:44.965Z,10.29
2018-05-13T23:13:12.498Z,10.21
2018-05-13T23:15:39.919Z,10.11
2018-05-13T23:18:07.391Z,10.19
2018-05-13T23:20:36.783Z,10.23
2018-05-13T23:23:04.231Z,10.05
2018-05-13T23:25:31.651Z,9.97
2018-05-13T23:27:59.106Z,10.04
2018-05-13T23:30:26.575Z,10.19
2018-05-13T23:32:54.073Z,10.16
2018-05-13T23:35:21.509Z,10.21
2018-05-13T23:37:48.899Z,10.41
2018-05-13T23:40:16.371Z,10.53
2018-05-13T23:42:43.817Z,10.58
2018-05-13T23:45:11.289Z,10.60
2018-05-13T23:47:38.777Z,10.49
2018-05-13T23:50:06.246Z,10.44
2018-05-13T23:52:35.146Z,10.34
2018-05-13T23:55:02.560Z,10.46
2018-05-13T23:57:30.969Z,10.44
2018-05-13T23:59:58.395Z,10.48
